Time;durP1;ratioP1;P1;durP2;ratioP2;P2;SDS_P1;SDS_P2;PMS_P1;PMS_P2;Temp;Humidity;BMP_temperature;BMP_pressure;BME280_temperature;BME280_humidity;BME280_pressure;Samples;Min_cycle;Max_cycle;Signal;HPM_P1;HPM_P2
2021/05/06 00:33:38;;;;;;;3.40;0.70;;;;;;;;;;5019457;28;20053;-77
2021/05/06 00:36:04;;;;;;;2.45;0.50;;;;;;;;;;5019842;28;20169;-77
2021/05/06 00:38:44;;;;;;;0.70;0.50;;;;;;;;;;5020068;28;20090;-78
2021/05/06 00:41:54;;;;;;;2.53;0.57;;;;;;;;;;5021044;28;20018;-77
2021/05/06 01:12:36;;;;;;;3.30;0.70;;;;;;;;;;5016649;28;20494;-77
2021/05/06 01:15:03;;;;;;;1.40;0.65;;;;;;;;;;5015666;28;20044;-78
2021/05/06 01:17:29;;;;;;;2.58;0.60;;;;;;;;;;5015150;28;20029;-78
2021/05/06 01:19:55;;;;;;;2.22;1.08;;;;;;;;;;5013425;28;20049;-78
2021/05/06 01:22:21;;;;;;;2.08;0.80;;;;;;;;;;5028009;28;20029;-77
2021/05/06 01:24:54;;;;;;;1.23;0.75;;;;;;;;;;5031212;28;20069;-78
2021/05/06 01:27:31;;;;;;;;;;;;;;;;;;5033556;28;20041;-77
2021/05/06 01:32:28;;;;;;;2.97;0.93;;;;;;;;;;5033900;28;20053;-77
2021/05/06 01:35:01;;;;;;;2.28;1.02;;;;;;;;;;5029248;28;20026;-77
2021/05/06 01:37:47;;;;;;;4.40;0.80;;;;;;;;;;5014251;28;20495;-77
2021/05/06 01:42:57;;;;;;;3.58;0.65;;;;;;;;;;4995170;28;20415;-77
2021/05/06 01:50:34;;;;;;;2.67;0.85;;;;;;;;;;5021460;28;20112;-77
2021/05/06 02:01:22;;;;;;;2.28;0.70;;;;;;;;;;5033818;28;20073;-76
2021/05/06 02:03:48;;;;;;;1.02;0.60;;;;;;;;;;5033695;28;20398;-76
2021/05/06 02:06:15;;;;;;;2.88;1.10;;;;;;;;;;5021638;28;20087;-76
2021/05/06 02:08:41;;;;;;;2.03;0.75;;;;;;;;;;5014099;28;20026;-76
2021/05/06 02:11:07;;;;;;;2.78;0.75;;;;;;;;;;5016410;28;20092;-76
2021/05/06 02:13:33;;;;;;;1.33;0.80;;;;;;;;;;5014295;28;20133;-76
2021/05/06 02:16:02;;;;;;;3.88;0.98;;;;;;;;;;5015201;28;20490;-76
2021/05/06 02:18:30;;;;;;;1.00;0.70;;;;;;;;;;5013784;28;20022;-76
2021/05/06 02:20:56;;;;;;;1.10;0.57;;;;;;;;;;5030215;28;20018;-76
2021/05/06 02:23:22;;;;;;;2.40;1.08;;;;;;;;;;5013703;28;20065;-76
2021/05/06 02:25:49;;;;;;;1.10;0.57;;;;;;;;;;4994339;28;20081;-77
2021/05/06 02:28:15;;;;;;;1.85;0.80;;;;;;;;;;5024005;28;20048;-76
2021/05/06 02:30:41;;;;;;;1.90;0.77;;;;;;;;;;5029518;28;20022;-76
2021/05/06 02:33:09;;;;;;;1.45;0.73;;;;;;;;;;5026364;28;20099;-77
2021/05/06 02:35:39;;;;;;;1.23;0.70;;;;;;;;;;5024989;28;20036;-76
2021/05/06 02:38:08;;;;;;;4.00;0.82;;;;;;;;;;5030606;28;20053;-76
2021/05/06 02:40:35;;;;;;;1.75;0.73;;;;;;;;;;5029255;28;20041;-76
2021/05/06 02:43:01;;;;;;;2.97;1.15;;;;;;;;;;5012665;28;20077;-77
2021/05/06 02:45:28;;;;;;;1.67;1.15;;;;;;;;;;5015881;28;20160;-77
2021/05/06 02:47:54;;;;;;;4.43;0.73;;;;;;;;;;5031751;28;20028;-77
2021/05/06 02:50:23;;;;;;;3.20;0.82;;;;;;;;;;5028940;28;20021;-77
2021/05/06 02:58:18;;;;;;;2.33;0.85;;;;;;;;;;5014006;28;20515;-76
2021/05/06 03:03:35;;;;;;;2.38;0.60;;;;;;;;;;5013692;28;20506;-76
2021/05/06 03:06:01;;;;;;;3.13;0.93;;;;;;;;;;5014648;28;20026;-76
2021/05/06 03:08:35;;;;;;;1.73;0.80;;;;;;;;;;5034218;28;20033;-76
2021/05/06 03:24:24;;;;;;;3.72;0.75;;;;;;;;;;5049440;28;20037;-76
2021/05/06 03:26:50;;;;;;;3.03;1.00;;;;;;;;;;5040833;28;20022;-76
2021/05/06 03:29:43;;;;;;;3.70;0.95;;;;;;;;;;5032993;28;20030;-76
2021/05/06 04:18:38;;;;;;;6.00;1.20;;;;;;;;;;5031282;28;20029;-77
2021/05/06 04:26:50;;;;;;;2.58;1.02;;;;;;;;;;5036130;28;20036;-77
2021/05/06 04:37:30;;;;;;;4.38;1.08;;;;;;;;;;5018089;28;20045;-76
2021/05/06 04:55:30;;;;;;;2.55;0.77;;;;;;;;;;5058442;22;20144;-78
2021/05/06 05:06:01;;;;;;;0.77;0.77;;;;;;;;;;5036067;28;20159;-78
2021/05/06 05:08:31;;;;;;;3.85;0.93;;;;;;;;;;5034631;28;20075;-78
2021/05/06 05:23:57;;;;;;;2.17;0.57;;;;;;;;;;5053531;28;20307;-76
2021/05/06 05:26:23;;;;;;;0.75;0.30;;;;;;;;;;5017519;28;20075;-78
2021/05/06 05:28:49;;;;;;;2.33;0.65;;;;;;;;;;5012792;28;20029;-79
2021/05/06 05:31:16;;;;;;;1.95;1.10;;;;;;;;;;5022478;28;20028;-79
2021/05/06 05:33:49;;;;;;;3.25;0.95;;;;;;;;;;5055434;28;20497;-78
2021/05/06 05:43:59;;;;;;;1.45;0.90;;;;;;;;;;5040097;28;20025;-77
2021/05/06 05:56:50;;;;;;;3.65;1.00;;;;;;;;;;5026385;28;20022;-78
2021/05/06 05:59:16;;;;;;;2.03;0.80;;;;;;;;;;5031774;28;20486;-77
2021/05/06 06:01:42;;;;;;;2.42;0.80;;;;;;;;;;5027206;28;20022;-78
2021/05/06 06:04:08;;;;;;;3.40;1.10;;;;;;;;;;5022335;28;20022;-77
2021/05/06 06:06:34;;;;;;;2.88;1.00;;;;;;;;;;5029022;28;20040;-77
2021/05/06 06:09:00;;;;;;;3.17;0.90;;;;;;;;;;5030617;28;20044;-78
2021/05/06 06:11:26;;;;;;;4.38;1.15;;;;;;;;;;5036346;28;20026;-79
2021/05/06 06:13:54;;;;;;;3.28;1.17;;;;;;;;;;5044447;28;20048;-78
2021/05/06 06:18:49;;;;;;;3.38;1.35;;;;;;;;;;5028790;28;20026;-79
2021/05/06 06:21:22;;;;;;;2.47;0.95;;;;;;;;;;5041224;28;20041;-79
2021/05/06 06:23:49;;;;;;;3.22;1.10;;;;;;;;;;5006689;28;20022;-79
2021/05/06 06:26:15;;;;;;;5.50;0.90;;;;;;;;;;5013050;28;20060;-79
2021/05/06 06:28:43;;;;;;;5.03;1.60;;;;;;;;;;5022956;28;20084;-78
2021/05/06 06:33:39;;;;;;;4.63;1.13;;;;;;;;;;5039106;28;20026;-78
2021/05/06 06:36:06;;;;;;;3.13;1.10;;;;;;;;;;5035901;28;20025;-79
2021/05/06 06:38:32;;;;;;;3.33;1.00;;;;;;;;;;5036974;28;20101;-78
2021/05/06 06:40:59;;;;;;;3.88;0.90;;;;;;;;;;5033671;28;20101;-77
2021/05/06 06:43:25;;;;;;;5.32;1.20;;;;;;;;;;5029923;28;20013;-79
2021/05/06 06:45:51;;;;;;;2.95;1.45;;;;;;;;;;5044121;28;20033;-78
2021/05/06 06:48:17;;;;;;;3.40;0.88;;;;;;;;;;5016747;28;20022;-77
2021/05/06 06:50:43;;;;;;;3.42;0.85;;;;;;;;;;5035064;28;20393;-76
2021/05/06 06:53:12;;;;;;;4.40;1.10;;;;;;;;;;5015857;28;20083;-77
2021/05/06 06:55:38;;;;;;;7.10;1.30;;;;;;;;;;5033511;28;20041;-79
2021/05/06 06:58:12;;;;;;;5.43;1.27;;;;;;;;;;5006443;28;20022;-78
2021/05/06 07:00:41;;;;;;;6.88;1.42;;;;;;;;;;5066944;28;20029;-78
2021/05/06 07:03:07;;;;;;;1.92;0.90;;;;;;;;;;5032043;28;20117;-79
2021/05/06 07:05:35;;;;;;;6.45;1.40;;;;;;;;;;5045338;28;20018;-78
2021/05/06 07:08:35;;;;;;;4.15;0.98;;;;;;;;;;5047045;28;20070;-77
2021/05/06 07:11:02;;;;;;;3.67;1.10;;;;;;;;;;4982773;28;20444;-78
2021/05/06 07:13:28;;;;;;;3.90;1.25;;;;;;;;;;5043480;28;20071;-79
2021/05/06 07:16:02;;;;;;;2.65;1.20;;;;;;;;;;5043438;28;20041;-78
2021/05/06 07:18:28;;;;;;;4.28;1.13;;;;;;;;;;5044456;28;20033;-79
2021/05/06 07:20:55;;;;;;;2.30;0.85;;;;;;;;;;5054645;28;20033;-79
2021/05/06 07:23:22;;;;;;;4.22;0.98;;;;;;;;;;5047499;28;20040;-79
2021/05/06 07:25:48;;;;;;;5.07;1.40;;;;;;;;;;5030069;28;20081;-79
2021/05/06 07:28:19;;;;;;;5.10;0.98;;;;;;;;;;5028395;28;20085;-79
2021/05/06 07:30:45;;;;;;;2.67;1.15;;;;;;;;;;5049318;28;20026;-79
2021/05/06 07:33:12;;;;;;;2.47;0.85;;;;;;;;;;5047352;28;20048;-79
2021/05/06 07:35:38;;;;;;;6.22;1.27;;;;;;;;;;5045100;28;20037;-79
2021/05/06 07:38:05;;;;;;;4.38;1.05;;;;;;;;;;5045567;28;20021;-78
2021/05/06 07:40:32;;;;;;;2.75;0.90;;;;;;;;;;5026821;28;20158;-79
2021/05/06 07:42:58;;;;;;;8.57;1.30;;;;;;;;;;5030101;28;20052;-80
2021/05/06 07:45:24;;;;;;;2.53;1.25;;;;;;;;;;5049319;28;20128;-80
2021/05/06 07:47:50;;;;;;;3.75;1.05;;;;;;;;;;5029152;28;20116;-77
2021/05/06 07:50:18;;;;;;;3.67;1.35;;;;;;;;;;5045193;28;20187;-78
2021/05/06 07:52:45;;;;;;;5.55;1.10;;;;;;;;;;5028985;28;20040;-79
2021/05/06 07:55:12;;;;;;;4.10;1.13;;;;;;;;;;5046034;28;20029;-79
2021/05/06 07:57:39;;;;;;;5.93;1.63;;;;;;;;;;5047360;28;20049;-78
2021/05/06 08:00:09;;;;;;;3.22;1.35;;;;;;;;;;5040079;28;20021;-78
2021/05/06 08:02:35;;;;;;;2.95;1.00;;;;;;;;;;5048777;28;20028;-78
2021/05/06 08:05:01;;;;;;;5.50;1.38;;;;;;;;;;5047036;28;20029;-80
2021/05/06 08:07:27;;;;;;;1.48;0.80;;;;;;;;;;5044919;28;20043;-79
2021/05/06 08:09:53;;;;;;;3.45;1.10;;;;;;;;;;5040163;28;20025;-79
2021/05/06 08:12:20;;;;;;;2.85;0.90;;;;;;;;;;5038655;28;20083;-78
2021/05/06 08:14:47;;;;;;;2.85;1.00;;;;;;;;;;5041682;28;20018;-79
2021/05/06 08:17:13;;;;;;;4.60;1.27;;;;;;;;;;5041900;28;20045;-77
2021/05/06 08:19:40;;;;;;;3.08;1.02;;;;;;;;;;5042908;28;20017;-79
2021/05/06 08:22:07;;;;;;;5.18;1.13;;;;;;;;;;5051990;28;20067;-78
2021/05/06 08:24:33;;;;;;;4.50;1.00;;;;;;;;;;5024150;28;20413;-78
2021/05/06 08:26:59;;;;;;;2.50;0.90;;;;;;;;;;5045234;28;20057;-78
2021/05/06 08:29:25;;;;;;;5.72;1.45;;;;;;;;;;5046284;28;20025;-78
2021/05/06 08:31:52;;;;;;;4.40;1.50;;;;;;;;;;5043455;28;20155;-79
2021/05/06 08:34:18;;;;;;;2.38;1.40;;;;;;;;;;5044426;28;20089;-81
2021/05/06 08:36:44;;;;;;;1.35;1.00;;;;;;;;;;5028104;28;20029;-80
2021/05/06 08:39:10;;;;;;;6.07;1.23;;;;;;;;;;5028778;28;20052;-80
2021/05/06 08:41:36;;;;;;;4.75;1.38;;;;;;;;;;5027764;28;20052;-79
2021/05/06 08:44:04;;;;;;;5.60;1.30;;;;;;;;;;5044746;28;20037;-79
2021/05/06 08:46:35;;;;;;;4.15;0.95;;;;;;;;;;5044390;28;20108;-79
2021/05/06 08:49:05;;;;;;;2.85;1.02;;;;;;;;;;5024934;28;20075;-79
2021/05/06 08:51:32;;;;;;;4.45;1.83;;;;;;;;;;5030840;28;20043;-78
2021/05/06 08:53:58;;;;;;;4.13;0.98;;;;;;;;;;5065120;28;20083;-77
2021/05/06 08:56:25;;;;;;;3.90;0.70;;;;;;;;;;5046075;28;20299;-78
2021/05/06 08:58:51;;;;;;;4.45;1.13;;;;;;;;;;5038874;28;20128;-80
2021/05/06 09:01:17;;;;;;;2.95;0.75;;;;;;;;;;5053185;28;20022;-77
2021/05/06 09:03:44;;;;;;;0.80;0.57;;;;;;;;;;5045356;28;20022;-77
2021/05/06 09:06:18;;;;;;;2.72;0.88;;;;;;;;;;5044475;28;20071;-80
2021/05/06 09:08:53;;;;;;;2.63;1.00;;;;;;;;;;5028926;28;20044;-80
2021/05/06 09:11:28;;;;;;;2.90;1.20;;;;;;;;;;5025808;28;20025;-78
2021/05/06 09:14:00;;;;;;;4.10;1.35;;;;;;;;;;5026685;28;20037;-79
2021/05/06 09:16:32;;;;;;;3.25;1.10;;;;;;;;;;5045941;28;20021;-78
2021/05/06 09:18:58;;;;;;;;;;;;;;;;;;5025220;28;20135;-78
2021/05/06 09:21:24;;;;;;;3.60;1.27;;;;;;;;;;5048263;28;19929;-79
2021/05/06 09:24:02;;;;;;;2.85;1.00;;;;;;;;;;5064643;28;20055;-79
2021/05/06 09:26:28;;;;;;;4.07;1.13;;;;;;;;;;5049259;28;20030;-80
2021/05/06 09:28:55;;;;;;;4.05;1.42;;;;;;;;;;5022636;28;20063;-78
2021/05/06 09:31:23;;;;;;;2.20;1.02;;;;;;;;;;5048290;28;20021;-77
2021/05/06 09:33:50;;;;;;;0.95;0.77;;;;;;;;;;5029494;28;20025;-79
2021/05/06 09:36:17;;;;;;;2.70;1.70;;;;;;;;;;5028307;28;20085;-77
2021/05/06 09:38:47;;;;;;;2.65;1.30;;;;;;;;;;5044013;28;20386;-78
2021/05/06 09:41:14;;;;;;;3.28;0.98;;;;;;;;;;5029093;28;20025;-79
2021/05/06 09:43:41;;;;;;;3.50;1.17;;;;;;;;;;5046732;28;20085;-79
2021/05/06 09:46:23;;;;;;;3.88;1.13;;;;;;;;;;5011781;28;20408;-79
2021/05/06 09:48:58;;;;;;;3.53;0.95;;;;;;;;;;5024083;28;20022;-80
2021/05/06 09:51:30;;;;;;;4.22;1.50;;;;;;;;;;5024358;28;20059;-78
2021/05/06 09:53:57;;;;;;;4.13;1.13;;;;;;;;;;5030162;28;20037;-79
2021/05/06 09:56:26;;;;;;;2.42;0.73;;;;;;;;;;5050952;28;20045;-78
2021/05/06 09:58:56;;;;;;;4.05;0.95;;;;;;;;;;5030357;28;20119;-82
2021/05/06 10:01:23;;;;;;;2.13;1.05;;;;;;;;;;5044394;28;20014;-80
2021/05/06 10:03:50;;;;;;;5.45;1.27;;;;;;;;;;5037342;28;20021;-82
2021/05/06 10:06:22;;;;;;;2.63;1.17;;;;;;;;;;5029600;28;20136;-77
2021/05/06 10:08:48;;;;;;;;;;;;;;;;;;5033585;28;20276;-78
2021/05/06 10:11:18;;;;;;;9.15;1.38;;;;;;;;;;5044067;28;19905;-78
2021/05/06 10:13:45;;;;;;;5.13;1.73;;;;;;;;;;5044736;28;20605;-78
2021/05/06 10:16:12;;;;;;;4.47;1.17;;;;;;;;;;5042176;28;20040;-78
2021/05/06 10:18:41;;;;;;;3.72;1.25;;;;;;;;;;5012976;28;20112;-79
2021/05/06 10:21:08;;;;;;;7.07;1.10;;;;;;;;;;5045817;28;20382;-78
2021/05/06 10:23:34;;;;;;;4.00;1.02;;;;;;;;;;5049167;28;20037;-78
2021/05/06 10:26:01;;;;;;;6.05;1.50;;;;;;;;;;5043760;28;20038;-77
2021/05/06 10:28:28;;;;;;;3.33;1.00;;;;;;;;;;5041376;28;20172;-78
2021/05/06 10:30:54;;;;;;;7.35;1.23;;;;;;;;;;5023103;28;20018;-79
2021/05/06 10:33:22;;;;;;;3.95;1.33;;;;;;;;;;5036463;28;20041;-78
2021/05/06 10:35:50;;;;;;;4.10;1.27;;;;;;;;;;5042819;28;20029;-79
2021/05/06 10:38:16;;;;;;;4.68;1.35;;;;;;;;;;5041825;28;20014;-79
2021/05/06 10:40:42;;;;;;;4.03;1.00;;;;;;;;;;5040297;28;20402;-79
2021/05/06 10:43:29;;;;;;;5.00;0.93;;;;;;;;;;5021308;28;20026;-78
2021/05/06 10:45:55;;;;;;;2.50;0.90;;;;;;;;;;5041854;28;20216;-78
2021/05/06 10:48:21;;;;;;;2.33;0.82;;;;;;;;;;5021682;28;20548;-78
2021/05/06 10:50:47;;;;;;;2.75;0.90;;;;;;;;;;5033553;28;20045;-79
2021/05/06 10:53:25;;;;;;;3.17;0.85;;;;;;;;;;5044546;28;20111;-79
2021/05/06 10:55:56;;;;;;;4.57;1.25;;;;;;;;;;5048726;28;20022;-79
2021/05/06 10:58:28;;;;;;;1.50;1.13;;;;;;;;;;5039118;28;20045;-77
2021/05/06 11:00:54;;;;;;;;;;;;;;;;;;5032217;28;20164;-77
2021/05/06 11:03:25;;;;;;;1.67;0.98;;;;;;;;;;5050684;28;20000;-78
2021/05/06 11:05:51;;;;;;;4.47;1.83;;;;;;;;;;5024199;28;20056;-77
2021/05/06 11:08:18;;;;;;;4.25;1.20;;;;;;;;;;5042499;28;20112;-78
2021/05/06 11:10:47;;;;;;;3.75;1.10;;;;;;;;;;5039209;28;20036;-77
2021/05/06 11:13:14;;;;;;;3.30;1.05;;;;;;;;;;5042661;28;20029;-79
2021/05/06 11:15:40;;;;;;;1.90;0.93;;;;;;;;;;5041504;28;20096;-77
2021/05/06 11:18:08;;;;;;;5.25;1.20;;;;;;;;;;5030662;28;20026;-80
2021/05/06 11:20:34;;;;;;;1.58;0.80;;;;;;;;;;5043069;28;20022;-79
2021/05/06 11:23:01;;;;;;;1.65;0.82;;;;;;;;;;5018306;28;20371;-80
2021/05/06 11:27:53;;;;;;;3.28;1.00;;;;;;;;;;5039499;28;20040;-79
2021/05/06 11:30:38;;;;;;;1.70;0.80;;;;;;;;;;5026368;28;20033;-77
2021/05/06 11:33:20;;;;;;;1.63;0.77;;;;;;;;;;5030522;28;20033;-78
2021/05/06 11:35:59;;;;;;;3.83;1.02;;;;;;;;;;5017269;28;20525;-79
2021/05/06 11:41:03;;;;;;;0.85;0.52;;;;;;;;;;5038806;28;20029;-78
2021/05/06 11:43:30;;;;;;;4.35;1.63;;;;;;;;;;5040120;28;20048;-78
2021/05/06 11:46:06;;;;;;;5.07;1.27;;;;;;;;;;5039489;28;20077;-78
2021/05/06 11:48:55;;;;;;;2.63;1.10;;;;;;;;;;5039555;28;20068;-77
2021/05/06 11:51:24;;;;;;;2.40;0.75;;;;;;;;;;5039194;28;20116;-78
2021/05/06 11:54:09;;;;;;;3.55;0.80;;;;;;;;;;5024870;28;20135;-78
2021/05/06 11:56:36;;;;;;;0.95;0.90;;;;;;;;;;5036541;28;20029;-80
2021/05/06 11:59:04;;;;;;;1.48;0.80;;;;;;;;;;5016892;28;20060;-79
2021/05/06 12:01:30;;;;;;;4.35;0.90;;;;;;;;;;5050008;28;20020;-79
2021/05/06 12:03:57;;;;;;;2.95;0.82;;;;;;;;;;5041676;28;20482;-79
2021/05/06 12:06:27;;;;;;;2.45;0.75;;;;;;;;;;5043201;28;20040;-79
2021/05/06 12:08:54;;;;;;;2.92;0.98;;;;;;;;;;5025463;28;20040;-78
2021/05/06 12:11:20;;;;;;;2.63;1.05;;;;;;;;;;5043107;28;20025;-79
2021/05/06 12:13:46;;;;;;;1.52;0.75;;;;;;;;;;5023672;28;20127;-79
2021/05/06 12:16:23;;;;;;;3.55;0.82;;;;;;;;;;5047584;28;20036;-78
2021/05/06 12:18:56;;;;;;;1.95;1.05;;;;;;;;;;5026593;28;20022;-78
2021/05/06 12:21:29;;;;;;;2.45;1.08;;;;;;;;;;5030340;28;20024;-77
2021/05/06 12:23:57;;;;;;;2.45;0.90;;;;;;;;;;5063823;28;20051;-78
2021/05/06 12:26:23;;;;;;;1.65;0.70;;;;;;;;;;5051229;28;20065;-78
2021/05/06 12:28:49;;;;;;;2.08;0.70;;;;;;;;;;5041278;28;20120;-80
2021/05/06 12:31:16;;;;;;;1.63;0.70;;;;;;;;;;5046218;28;20031;-79
2021/05/06 12:33:42;;;;;;;4.15;1.00;;;;;;;;;;5042925;28;20061;-79
2021/05/06 12:36:12;;;;;;;1.10;0.70;;;;;;;;;;5041761;28;20025;-79
2021/05/06 12:38:38;;;;;;;0.65;0.52;;;;;;;;;;5042145;28;20025;-77
2021/05/06 12:41:08;;;;;;;1.58;0.77;;;;;;;;;;5041844;28;20047;-81
2021/05/06 12:43:37;;;;;;;7.07;1.27;;;;;;;;;;5023893;28;20026;-79
2021/05/06 12:46:06;;;;;;;0.90;0.60;;;;;;;;;;5035952;28;20025;-77
2021/05/06 12:48:38;;;;;;;2.38;0.68;;;;;;;;;;5032328;28;20072;-76
2021/05/06 12:51:05;;;;;;;1.50;0.75;;;;;;;;;;5044053;28;20056;-81
2021/05/06 12:53:31;;;;;;;1.83;0.80;;;;;;;;;;5044267;28;20027;-78
2021/05/06 12:55:57;;;;;;;1.17;0.80;;;;;;;;;;5035185;28;20120;-78
2021/05/06 12:58:29;;;;;;;2.17;0.90;;;;;;;;;;5028636;28;20022;-82
2021/05/06 13:00:55;;;;;;;5.07;1.48;;;;;;;;;;5049885;28;20025;-76
2021/05/06 13:03:30;;;;;;;3.15;0.80;;;;;;;;;;5038970;28;20040;-76
2021/05/06 13:06:03;;;;;;;2.72;1.00;;;;;;;;;;5040870;28;20056;-78
2021/05/06 13:08:41;;;;;;;1.02;0.60;;;;;;;;;;5039755;28;20068;-77
2021/05/06 13:11:11;;;;;;;0.90;0.75;;;;;;;;;;5037844;28;20033;-80
2021/05/06 13:13:37;;;;;;;2.78;0.80;;;;;;;;;;5031433;28;20029;-77
2021/05/06 13:16:04;;;;;;;2.42;1.10;;;;;;;;;;5024481;28;20041;-78
2021/05/06 13:18:30;;;;;;;2.90;0.85;;;;;;;;;;5040949;28;20017;-78
2021/05/06 13:20:56;;;;;;;3.28;1.10;;;;;;;;;;5048041;28;20283;-78
2021/05/06 13:23:24;;;;;;;3.42;1.05;;;;;;;;;;5056489;28;20478;-78
2021/05/06 13:25:51;;;;;;;2.08;1.05;;;;;;;;;;5025323;28;20037;-78
2021/05/06 13:28:40;;;;;;;3.10;1.40;;;;;;;;;;5041959;28;20025;-77
2021/05/06 13:31:08;;;;;;;2.30;0.90;;;;;;;;;;5020584;28;20033;-77
2021/05/06 13:33:34;;;;;;;4.13;1.15;;;;;;;;;;5020215;28;20041;-78
2021/05/06 13:36:07;;;;;;;2.47;1.25;;;;;;;;;;5038455;28;20026;-77
2021/05/06 13:38:52;;;;;;;1.42;0.70;;;;;;;;;;5023380;28;20121;-78
2021/05/06 13:41:19;;;;;;;0.77;0.73;;;;;;;;;;5039079;28;20073;-78
2021/05/06 13:43:46;;;;;;;4.20;0.93;;;;;;;;;;5039601;28;20036;-77
2021/05/06 13:46:13;;;;;;;1.05;0.75;;;;;;;;;;5036558;28;20113;-77
2021/05/06 13:48:39;;;;;;;2.65;0.63;;;;;;;;;;5036163;28;20025;-77
2021/05/06 13:51:06;;;;;;;1.58;0.90;;;;;;;;;;5055553;28;20031;-76
2021/05/06 13:53:32;;;;;;;0.50;0.50;;;;;;;;;;5046991;28;20033;-77
2021/05/06 13:55:58;;;;;;;2.80;0.68;;;;;;;;;;5064612;28;20501;-78
2021/05/06 13:58:24;;;;;;;1.15;0.55;;;;;;;;;;5057552;28;20032;-76
2021/05/06 14:00:50;;;;;;;1.63;0.80;;;;;;;;;;5057814;28;20508;-77
2021/05/06 14:03:16;;;;;;;0.88;0.75;;;;;;;;;;5019945;28;20479;-78
2021/05/06 14:05:42;;;;;;;1.15;0.60;;;;;;;;;;5036290;28;20037;-77
2021/05/06 14:08:08;;;;;;;4.63;1.10;;;;;;;;;;5035506;28;20525;-79
2021/05/06 14:10:35;;;;;;;1.38;0.90;;;;;;;;;;5037282;28;20067;-79
2021/05/06 14:13:01;;;;;;;1.25;1.05;;;;;;;;;;5036812;28;20389;-79
2021/05/06 14:15:27;;;;;;;2.45;0.88;;;;;;;;;;5039301;28;20079;-78
2021/05/06 14:17:53;;;;;;;1.80;0.73;;;;;;;;;;5039920;28;20021;-78
2021/05/06 14:20:20;;;;;;;1.15;0.68;;;;;;;;;;5043625;28;20022;-78
2021/05/06 14:22:46;;;;;;;2.80;1.40;;;;;;;;;;5044028;28;20307;-76
2021/05/06 14:25:12;;;;;;;0.80;0.80;;;;;;;;;;5040564;28;20029;-76
2021/05/06 14:27:38;;;;;;;1.65;0.57;;;;;;;;;;5038469;28;20032;-77
2021/05/06 14:30:05;;;;;;;3.83;1.50;;;;;;;;;;5037582;28;20025;-77
2021/05/06 14:32:31;;;;;;;2.70;1.20;;;;;;;;;;5038194;28;20036;-78
2021/05/06 14:34:58;;;;;;;2.05;0.90;;;;;;;;;;5037010;28;20348;-78
2021/05/06 14:37:24;;;;;;;1.17;0.65;;;;;;;;;;5032487;28;20430;-77
2021/05/06 14:39:50;;;;;;;0.95;0.50;;;;;;;;;;5022954;28;20030;-78
2021/05/06 14:42:17;;;;;;;1.85;0.65;;;;;;;;;;5016030;28;20025;-77
2021/05/06 14:44:43;;;;;;;1.02;0.65;;;;;;;;;;5036124;28;20078;-76
2021/05/06 14:47:10;;;;;;;2.13;0.98;;;;;;;;;;5057177;28;20116;-75
2021/05/06 14:49:36;;;;;;;2.38;1.10;;;;;;;;;;5035725;28;20057;-76
2021/05/06 14:52:02;;;;;;;1.20;0.75;;;;;;;;;;5050866;28;20075;-76
2021/05/06 14:54:28;;;;;;;2.75;1.15;;;;;;;;;;5060746;28;20041;-76
2021/05/06 14:56:54;;;;;;;1.27;0.80;;;;;;;;;;5061029;28;20025;-76
2021/05/06 14:59:20;;;;;;;1.13;0.90;;;;;;;;;;5050523;28;20028;-77
2021/05/06 15:01:47;;;;;;;6.15;1.55;;;;;;;;;;5040377;28;20018;-79
2021/05/06 15:04:13;;;;;;;2.35;1.40;;;;;;;;;;5037131;28;20025;-79
2021/05/06 15:06:39;;;;;;;3.08;1.50;;;;;;;;;;5020538;28;20036;-78
2021/05/06 15:09:06;;;;;;;4.65;1.30;;;;;;;;;;5042198;28;20155;-77
2021/05/06 15:11:33;;;;;;;2.83;1.60;;;;;;;;;;5020032;28;20025;-79
2021/05/06 15:13:59;;;;;;;2.28;1.33;;;;;;;;;;5036906;28;20025;-77
2021/05/06 15:16:25;;;;;;;3.70;1.30;;;;;;;;;;5019435;28;20393;-78
2021/05/06 15:18:51;;;;;;;1.70;0.90;;;;;;;;;;5037426;28;20051;-78
2021/05/06 15:21:17;;;;;;;1.65;1.02;;;;;;;;;;5024914;28;20102;-78
2021/05/06 15:23:43;;;;;;;2.30;1.20;;;;;;;;;;5027251;28;20026;-78
2021/05/06 15:26:09;;;;;;;2.67;1.38;;;;;;;;;;5022153;28;20107;-78
2021/05/06 15:28:35;;;;;;;1.95;0.77;;;;;;;;;;5040628;28;20548;-78
2021/05/06 15:31:02;;;;;;;1.30;0.93;;;;;;;;;;5022749;28;20073;-78
2021/05/06 15:33:28;;;;;;;0.75;0.75;;;;;;;;;;5039193;28;20112;-78
2021/05/06 15:35:54;;;;;;;1.52;0.80;;;;;;;;;;5021410;28;20423;-78
2021/05/06 15:38:20;;;;;;;0.95;0.63;;;;;;;;;;5037908;28;20072;-79
2021/05/06 15:40:51;;;;;;;0.77;0.70;;;;;;;;;;5040160;28;20101;-77
2021/05/06 15:43:17;;;;;;;1.60;1.08;;;;;;;;;;5022637;28;20079;-78
2021/05/06 15:45:43;;;;;;;0.88;0.77;;;;;;;;;;5023008;28;20059;-77
2021/05/06 15:48:10;;;;;;;2.10;0.90;;;;;;;;;;5040681;28;20064;-77
2021/05/06 15:50:36;;;;;;;1.50;0.75;;;;;;;;;;5053285;28;20110;-77
2021/05/06 15:53:03;;;;;;;1.33;1.00;;;;;;;;;;5023120;28;20079;-76
2021/05/06 15:55:30;;;;;;;0.68;0.68;;;;;;;;;;5021355;28;20390;-77
2021/05/06 15:57:56;;;;;;;0.68;0.68;;;;;;;;;;5039148;28;20018;-77
2021/05/06 16:00:24;;;;;;;1.38;0.80;;;;;;;;;;5027912;28;20041;-77
2021/05/06 16:02:54;;;;;;;1.13;0.65;;;;;;;;;;5044130;28;20056;-77
2021/05/06 16:05:25;;;;;;;1.08;0.98;;;;;;;;;;5022579;28;20421;-78
2021/05/06 16:07:51;;;;;;;1.00;0.68;;;;;;;;;;5045123;28;20124;-76
2021/05/06 16:10:18;;;;;;;2.22;0.75;;;;;;;;;;5044960;28;20022;-77
2021/05/06 16:12:44;;;;;;;1.08;0.98;;;;;;;;;;5023428;28;20052;-77
2021/05/06 16:15:11;;;;;;;0.88;0.77;;;;;;;;;;5040724;28;20053;-78
2021/05/06 16:17:37;;;;;;;0.65;0.65;;;;;;;;;;5040995;28;20037;-76
2021/05/06 16:20:04;;;;;;;0.80;0.73;;;;;;;;;;5031758;28;20064;-76
2021/05/06 16:22:30;;;;;;;1.58;0.80;;;;;;;;;;5062795;28;20124;-77
2021/05/06 16:24:57;;;;;;;1.05;0.75;;;;;;;;;;5048929;28;20119;-76
2021/05/06 16:27:24;;;;;;;0.50;0.50;;;;;;;;;;5048948;28;20036;-77
2021/05/06 16:29:50;;;;;;;1.25;1.15;;;;;;;;;;5047479;28;20222;-76
2021/05/06 16:32:16;;;;;;;0.80;0.80;;;;;;;;;;5046542;28;20021;-77
2021/05/06 16:34:44;;;;;;;1.02;0.90;;;;;;;;;;5030516;28;20021;-77
2021/05/06 16:37:23;;;;;;;3.35;1.17;;;;;;;;;;5051078;28;20196;-77
2021/05/06 16:40:20;;;;;;;2.00;1.17;;;;;;;;;;5033874;28;20025;-77
2021/05/06 16:43:11;;;;;;;0.70;0.70;;;;;;;;;;5029960;28;20029;-78
2021/05/06 16:45:40;;;;;;;3.53;1.50;;;;;;;;;;5043099;28;20084;-78
2021/05/06 16:48:07;;;;;;;2.03;1.15;;;;;;;;;;5028770;28;20060;-77
2021/05/06 16:50:33;;;;;;;3.58;1.00;;;;;;;;;;5056783;28;20466;-79
2021/05/06 16:53:02;;;;;;;2.15;1.05;;;;;;;;;;5063911;28;20029;-79
2021/05/06 16:55:29;;;;;;;1.58;1.17;;;;;;;;;;5061127;22;20532;-79
2021/05/06 16:57:55;;;;;;;2.97;1.35;;;;;;;;;;5024087;28;20034;-78
2021/05/06 17:00:21;;;;;;;2.40;1.23;;;;;;;;;;5024101;28;20030;-77
2021/05/06 17:02:50;;;;;;;2.97;1.70;;;;;;;;;;5036392;28;20033;-78
2021/05/06 17:05:16;;;;;;;2.10;1.58;;;;;;;;;;5030778;28;20033;-78
2021/05/06 17:07:46;;;;;;;1.50;1.23;;;;;;;;;;5029178;28;20086;-78
2021/05/06 17:10:12;;;;;;;1.50;1.40;;;;;;;;;;5041878;28;20087;-79
2021/05/06 17:12:39;;;;;;;2.13;1.90;;;;;;;;;;5042673;28;20462;-80
2021/05/06 17:15:06;;;;;;;3.17;2.30;;;;;;;;;;5027878;28;20402;-79
2021/05/06 17:17:32;;;;;;;3.20;1.75;;;;;;;;;;5041081;28;20037;-79
2021/05/06 17:19:59;;;;;;;2.95;1.50;;;;;;;;;;5047915;28;20126;-79
2021/05/06 17:22:28;;;;;;;3.88;2.15;;;;;;;;;;5050925;28;20055;-79
2021/05/06 17:24:54;;;;;;;3.72;1.63;;;;;;;;;;5054114;28;20037;-78
2021/05/06 17:27:21;;;;;;;3.75;1.60;;;;;;;;;;5032488;28;20025;-79
2021/05/06 17:29:48;;;;;;;1.35;0.95;;;;;;;;;;5027392;28;20029;-79
2021/05/06 17:32:17;;;;;;;4.07;1.50;;;;;;;;;;5039252;28;20056;-77
2021/05/06 17:34:43;;;;;;;1.48;1.10;;;;;;;;;;5041928;28;20099;-78
2021/05/06 17:37:09;;;;;;;3.78;1.58;;;;;;;;;;5037764;28;20057;-77
2021/05/06 17:39:35;;;;;;;2.42;1.23;;;;;;;;;;5027094;28;20057;-76
2021/05/06 17:42:02;;;;;;;1.40;1.25;;;;;;;;;;5037466;28;20434;-76
2021/05/06 17:44:28;;;;;;;2.03;1.30;;;;;;;;;;5038322;28;20044;-78
2021/05/06 17:47:04;;;;;;;1.55;1.30;;;;;;;;;;5036989;28;20029;-78
2021/05/06 17:49:33;;;;;;;2.90;1.35;;;;;;;;;;5036237;28;20124;-77
2021/05/06 17:51:59;;;;;;;2.97;1.67;;;;;;;;;;5053714;28;20029;-78
2021/05/06 17:54:25;;;;;;;3.80;1.65;;;;;;;;;;5060464;28;20601;-77
2021/05/06 17:56:52;;;;;;;4.95;3.05;;;;;;;;;;5048755;28;20029;-77
2021/05/06 17:59:18;;;;;;;3.80;2.50;;;;;;;;;;5053865;28;20477;-77
2021/05/06 18:05:38;;;;;;;4.05;1.88;;;;;;;;;;5153717;27;20365;-77
2021/05/06 18:08:04;;;;;;;2.00;1.58;;;;;;;;;;5129047;28;20062;-78
2021/05/06 18:10:49;;;;;;;2.50;1.40;;;;;;;;;;5109709;28;20028;-77
2021/05/06 18:13:15;;;;;;;1.65;1.40;;;;;;;;;;5105971;28;20016;-79
2021/05/06 18:15:41;;;;;;;2.42;1.85;;;;;;;;;;5108742;28;20024;-79
2021/05/06 18:18:07;;;;;;;1.80;1.60;;;;;;;;;;5107180;28;20065;-78
2021/05/06 18:20:33;;;;;;;3.45;1.88;;;;;;;;;;5107347;28;20020;-78
2021/05/06 18:23:03;;;;;;;2.72;1.90;;;;;;;;;;5131708;28;20479;-77
2021/05/06 18:25:29;;;;;;;7.18;2.78;;;;;;;;;;5131185;28;20488;-78
2021/05/06 18:28:00;;;;;;;5.03;2.08;;;;;;;;;;5116733;28;20100;-78
2021/05/06 18:30:29;;;;;;;3.85;2.47;;;;;;;;;;5111465;28;20028;-77
2021/05/06 18:32:58;;;;;;;3.63;2.17;;;;;;;;;;5114878;28;20376;-78
2021/05/06 18:35:24;;;;;;;2.97;1.85;;;;;;;;;;5103906;28;20206;-78
2021/05/06 18:37:51;;;;;;;4.80;2.28;;;;;;;;;;5110089;28;20358;-77
2021/05/06 18:40:17;;;;;;;4.22;2.50;;;;;;;;;;5096436;28;20032;-75